createdAt,value
2023-04-16T00:01:49.722Z,101083.28
2023-04-16T00:04:21.706Z,101085.94
2023-04-16T00:06:53.308Z,101083.41
2023-04-16T00:09:25.275Z,101084.94
2023-04-16T00:11:58.980Z,101088.63
2023-04-16T00:14:31.043Z,101085.13
2023-04-16T00:17:03.028Z,101098.31
2023-04-16T00:19:34.666Z,101087.63
2023-04-16T00:22:06.593Z,101094.94
2023-04-16T00:24:38.541Z,101092.97
2023-04-16T00:27:11.478Z,101090.75
2023-04-16T00:29:43.319Z,101092.41
2023-04-16T00:32:15.543Z,101084.13
2023-04-16T00:34:47.195Z,101093.94
2023-04-16T00:37:18.967Z,101092.13
2023-04-16T00:39:51.298Z,101096.38
2023-04-16T00:42:24.545Z,101094.09
2023-04-16T00:44:56.433Z,101098.88
2023-04-16T00:47:28.923Z,101104.22
2023-04-16T00:50:00.541Z,101096.63
2023-04-16T00:52:33.551Z,101098.75
2023-04-16T00:55:05.695Z,101100.31
2023-04-16T00:57:38.597Z,101097.31
2023-04-16T01:00:10.862Z,101093.56
2023-04-16T01:02:43.432Z,101090.03
2023-04-16T01:05:15.415Z,101093.00
2023-04-16T01:07:47.217Z,101091.44
2023-04-16T01:10:19.044Z,101096.19
2023-04-16T01:12:51.976Z,101092.44
2023-04-16T01:15:23.926Z,101099.72
2023-04-16T01:17:56.128Z,101102.53
2023-04-16T01:20:27.850Z,101103.78
2023-04-16T01:23:01.035Z,101108.00
2023-04-16T01:25:32.920Z,101113.63
2023-04-16T01:28:04.800Z,101119.69
2023-04-16T01:30:36.645Z,101123.63
2023-04-16T01:33:10.192Z,101133.72
2023-04-16T01:35:42.284Z,101136.69
2023-04-16T01:38:15.958Z,101141.44
2023-04-16T01:40:47.601Z,101138.22
2023-04-16T01:43:19.450Z,101139.06
2023-04-16T01:45:51.338Z,101143.81
2023-04-16T01:48:23.204Z,101140.19
2023-04-16T01:50:55.061Z,101138.22
2023-04-16T01:53:28.260Z,101146.03
2023-04-16T01:56:00.189Z,101143.09
2023-04-16T01:58:35.412Z,101147.47
2023-04-16T02:01:08.395Z,101149.16
2023-04-16T02:03:43.368Z,101140.28
2023-04-16T02:06:15.011Z,101143.25
2023-04-16T02:08:48.069Z,101148.69
2023-04-16T02:11:19.869Z,101143.75
2023-04-16T02:13:51.702Z,101144.50
2023-04-16T02:16:24.005Z,101153.03
2023-04-16T02:18:55.993Z,101158.38
2023-04-16T02:21:27.846Z,101156.13
2023-04-16T02:24:01.017Z,101162.44
2023-04-16T02:26:33.199Z,101166.16
2023-04-16T02:29:04.814Z,101165.66
2023-04-16T02:31:36.749Z,101163.97
2023-04-16T02:34:08.478Z,101163.78
2023-04-16T02:36:40.395Z,101170.66
2023-04-16T02:39:13.525Z,101168.97
2023-04-16T02:41:45.535Z,101165.13
2023-04-16T02:44:17.092Z,101172.31
2023-04-16T02:46:49.061Z,101167.50
2023-04-16T02:49:20.842Z,101173.91
2023-04-16T02:51:52.665Z,101175.34
2023-04-16T02:54:25.667Z,101169.75
2023-04-16T02:56:57.801Z,101178.16
2023-04-16T02:59:29.366Z,101177.34
2023-04-16T03:02:01.247Z,101180.03
2023-04-16T03:04:33.677Z,101185.13
2023-04-16T03:07:05.283Z,101181.72
2023-04-16T03:09:38.211Z,101190.47
2023-04-16T03:12:11.037Z,101175.75
2023-04-16T03:14:42.951Z,101182.88
2023-04-16T03:17:14.778Z,101180.38
2023-04-16T03:19:46.588Z,101186.38
2023-04-16T03:22:18.719Z,101184.84
2023-04-16T03:24:52.549Z,101188.50
2023-04-16T03:27:24.180Z,101185.56
2023-04-16T03:29:55.985Z,101195.63
2023-04-16T03:32:27.899Z,101196.09
2023-04-16T03:34:59.897Z,101200.59
2023-04-16T03:37:31.949Z,101187.09
2023-04-16T03:40:05.441Z,101197.34
2023-04-16T03:42:37.028Z,101196.63
2023-04-16T03:45:11.004Z,101203.59
2023-04-16T03:47:42.936Z,101197.81
2023-04-16T03:50:15.637Z,101196.81
2023-04-16T03:52:49.342Z,101203.66
2023-04-16T03:55:22.529Z,101206.06
2023-04-16T03:57:54.424Z,101201.72
2023-04-16T04:00:26.260Z,101208.13
2023-04-16T04:02:58.399Z,101203.28
2023-04-16T04:05:30.151Z,101208.66
2023-04-16T04:08:02.080Z,101199.00
2023-04-16T04:10:37.066Z,101194.22
2023-04-16T04:13:10.459Z,101199.22
2023-04-16T04:15:42.391Z,101207.38
2023-04-16T04:18:14.414Z,101216.53
2023-04-16T04:20:47.215Z,101212.50
2023-04-16T04:23:19.069Z,101217.72
2023-04-16T04:25:52.288Z,101225.72
2023-04-16T04:28:24.260Z,101219.22
2023-04-16T04:30:56.082Z,101221.88
2023-04-16T04:33:28.051Z,101219.31
2023-04-16T04:35:59.839Z,101223.81
2023-04-16T04:38:31.758Z,101213.88
2023-04-16T04:41:04.689Z,101223.69
2023-04-16T04:43:36.626Z,101222.56
2023-04-16T04:46:08.483Z,101218.34
2023-04-16T04:48:40.429Z,101211.81
2023-04-16T04:51:12.233Z,101221.16
2023-04-16T04:53:44.073Z,101227.59
2023-04-16T04:56:17.077Z,101227.06
2023-04-16T04:58:50.694Z,101244.47
2023-04-16T05:01:22.387Z,101239.94
2023-04-16T05:03:54.262Z,101240.78
2023-04-16T05:06:29.057Z,101236.44
2023-04-16T05:09:01.536Z,101233.25
2023-04-16T05:11:34.550Z,101247.31
2023-04-16T05:14:06.392Z,101250.66
2023-04-16T05:16:39.325Z,101253.34
2023-04-16T05:19:11.545Z,101255.03
2023-04-16T05:21:43.555Z,101267.25
2023-04-16T05:24:15.366Z,101263.88
2023-04-16T05:26:48.517Z,101266.66
2023-04-16T05:29:20.449Z,101263.28
2023-04-16T05:31:52.364Z,101268.47
2023-04-16T05:34:24.234Z,101270.56
2023-04-16T05:36:56.077Z,101273.09
2023-04-16T05:39:28.069Z,101277.59
2023-04-16T05:42:01.506Z,101276.84
2023-04-16T05:44:33.077Z,101280.38
2023-04-16T05:47:04.906Z,101280.50
2023-04-16T05:49:37.312Z,101283.63
2023-04-16T05:52:09.186Z,101281.81
2023-04-16T05:54:41.028Z,101300.59
2023-04-16T05:57:14.200Z,101291.59
2023-04-16T05:59:46.100Z,101294.16
2023-04-16T06:02:18.477Z,101296.69
2023-04-16T06:04:50.778Z,101283.50
2023-04-16T06:07:22.421Z,101296.69
2023-04-16T06:09:54.305Z,101303.97
2023-04-16T06:12:27.191Z,101309.56
2023-04-16T06:14:59.057Z,101311.00
2023-04-16T06:17:31.049Z,101316.34
2023-04-16T06:20:02.862Z,101310.75
2023-04-16T06:22:34.766Z,101316.34
2023-04-16T06:25:06.718Z,101315.47
2023-04-16T06:27:39.795Z,101312.22
2023-04-16T06:30:16.325Z,101319.50
2023-04-16T06:32:48.396Z,101324.59
2023-04-16T06:35:20.569Z,101322.63
2023-04-16T06:37:52.161Z,101328.28
2023-04-16T06:40:24.179Z,101340.06
2023-04-16T06:42:57.194Z,101334.25
2023-04-16T06:45:29.053Z,101335.63
2023-04-16T06:48:01.454Z,101347.66
2023-04-16T06:50:33.511Z,101348.81
2023-04-16T06:53:05.356Z,101345.19
2023-04-16T06:55:37.179Z,101348.56
2023-04-16T06:58:10.130Z,101348.81
2023-04-16T07:00:42.107Z,101350.06
2023-04-16T07:03:14.108Z,101351.88
2023-04-16T07:05:45.839Z,101357.06
2023-04-16T07:08:17.647Z,101348.81
2023-04-16T07:10:49.524Z,101347.59
2023-04-16T07:13:22.547Z,101345.44
2023-04-16T07:15:54.392Z,101349.91
2023-04-16T07:18:26.306Z,101348.81
2023-04-16T07:20:58.376Z,101351.94
2023-04-16T07:23:29.963Z,101348.06
2023-04-16T07:26:01.878Z,101344.28
2023-04-16T07:28:34.923Z,101356.75
2023-04-16T07:31:07.033Z,101357.34
2023-04-16T07:33:39.170Z,101356.97
2023-04-16T07:36:12.313Z,101369.19
2023-04-16T07:38:43.976Z,101366.41
2023-04-16T07:41:15.857Z,101366.28
2023-04-16T07:43:49.056Z,101368.69
2023-04-16T07:46:21.169Z,101373.06
2023-04-16T07:48:52.968Z,101377.28
2023-04-16T07:51:24.799Z,101382.59
2023-04-16T07:53:56.683Z,101380.41
2023-04-16T07:56:28.630Z,101383.34
2023-04-16T07:59:14.492Z,101399.19
2023-04-16T08:01:53.545Z,101390.13
2023-04-16T08:04:26.298Z,101393.75
2023-04-16T08:06:58.452Z,101398.81
2023-04-16T08:09:31.806Z,101397.84
2023-04-16T08:12:05.736Z,101399.16
2023-04-16T08:14:38.738Z,101410.28
2023-04-16T08:17:10.612Z,101413.41
2023-04-16T08:19:43.146Z,101408.00
2023-04-16T08:22:16.635Z,101411.59
2023-04-16T08:24:48.559Z,101417.56
2023-04-16T08:27:20.582Z,101414.72
2023-04-16T08:29:53.804Z,101421.78
2023-04-16T08:32:27.119Z,101421.66
2023-04-16T08:34:59.156Z,101423.22
2023-04-16T08:37:30.939Z,101428.53
2023-04-16T08:40:03.594Z,101429.41
2023-04-16T08:42:46.886Z,101431.09
2023-04-16T08:45:21.831Z,101435.44
2023-04-16T08:47:54.840Z,101437.84
2023-04-16T08:50:30.784Z,101443.06
2023-04-16T08:53:07.642Z,101446.69
2023-04-16T08:55:47.822Z,101449.38
2023-04-16T08:58:23.671Z,101445.72
2023-04-16T09:00:57.929Z,101453.84
2023-04-16T09:03:31.523Z,101457.53
2023-04-16T09:06:05.506Z,101455.69
2023-04-16T09:08:41.633Z,101453.84
2023-04-16T09:11:14.335Z,101449.09
2023-04-16T09:13:46.332Z,101456.28
2023-04-16T09:16:21.484Z,101464.84
2023-04-16T09:18:55.489Z,101458.81
2023-04-16T09:21:27.946Z,101455.88
2023-04-16T09:24:00.828Z,101459.28
2023-04-16T09:26:33.711Z,101458.56
2023-04-16T09:29:05.763Z,101457.31
2023-04-16T09:31:38.947Z,101468.59
2023-04-16T09:34:13.090Z,101468.59
2023-04-16T09:36:44.908Z,101470.66
2023-04-16T09:39:24.083Z,101476.72
2023-04-16T09:41:58.196Z,101480.13
2023-04-16T09:44:40.531Z,101484.47
2023-04-16T09:47:14.127Z,101481.81
2023-04-16T09:49:49.390Z,101485.31
2023-04-16T09:52:24.004Z,101486.56
2023-04-16T09:54:57.420Z,101499.16
2023-04-16T09:57:30.483Z,101488.38
2023-04-16T10:00:10.215Z,101494.69
2023-04-16T10:02:45.060Z,101486.78
2023-04-16T10:05:20.885Z,101502.22
2023-04-16T10:07:54.403Z,101504.78
2023-04-16T10:10:27.221Z,101507.09
2023-04-16T10:13:00.027Z,101513.03
2023-04-16T10:15:31.995Z,101515.13
2023-04-16T10:18:06.154Z,101518.75
2023-04-16T10:20:38.687Z,101511.75
2023-04-16T10:23:12.840Z,101525.09
2023-04-16T10:25:48.759Z,101518.63
2023-04-16T10:28:20.695Z,101523.22
2023-04-16T10:30:54.755Z,101523.97
2023-04-16T10:33:32.240Z,101522.41
2023-04-16T10:36:12.449Z,101526.91
2023-04-16T10:38:48.463Z,101532.09
2023-04-16T10:41:21.056Z,101526.63
2023-04-16T10:44:05.699Z,101522.16
2023-04-16T10:46:43.442Z,101525.53
2023-04-16T10:49:27.596Z,101536.19
2023-04-16T10:52:03.644Z,101537.16
2023-04-16T10:54:39.509Z,101536.19
2023-04-16T10:57:18.835Z,101541.44
2023-04-16T10:59:52.467Z,101538.75
2023-04-16T11:02:29.543Z,101539.56
2023-04-16T11:05:04.538Z,101532.31
2023-04-16T11:07:49.602Z,101542.25
2023-04-16T11:10:21.483Z,101534.84
2023-04-16T11:12:55.614Z,101533.28
2023-04-16T11:15:31.327Z,101538.34
2023-04-16T11:18:04.377Z,101538.25
2023-04-16T11:20:42.381Z,101540.75
2023-04-16T11:23:16.135Z,101538.84
2023-04-16T11:25:48.020Z,101533.22
2023-04-16T11:28:19.868Z,101542.69
2023-04-16T11:30:51.765Z,101538.91
2023-04-16T11:33:23.659Z,101540.59
2023-04-16T11:36:02.751Z,101540.97
2023-04-16T11:38:43.003Z,101536.22
2023-04-16T11:41:22.895Z,101537.94
2023-04-16T11:43:55.255Z,101539.50
2023-04-16T11:46:38.537Z,101539.50
2023-04-16T11:49:10.680Z,101543.59
2023-04-16T11:51:48.614Z,101549.66
2023-04-16T11:54:27.483Z,101546.00
2023-04-16T11:56:59.278Z,101545.75
2023-04-16T11:59:31.157Z,101547.44
2023-04-16T12:02:03.155Z,101537.47
2023-04-16T12:04:36.525Z,101549.88
2023-04-16T12:07:17.330Z,101552.53
2023-04-16T12:09:49.068Z,101545.22
2023-04-16T12:12:35.317Z,101548.63
2023-04-16T12:15:08.943Z,101555.91
2023-04-16T12:17:41.243Z,101548.63
2023-04-16T12:20:16.289Z,101551.03
2023-04-16T12:22:55.346Z,101549.22
2023-04-16T12:25:29.692Z,101546.41
2023-04-16T12:28:02.162Z,101549.06
2023-04-16T12:30:34.396Z,101549.06
2023-04-16T12:33:22.377Z,101542.75
2023-04-16T12:35:54.773Z,101543.47
2023-04-16T12:38:27.921Z,101546.72
2023-04-16T12:41:02.186Z,101549.88
2023-04-16T12:43:34.218Z,101543.13
2023-04-16T12:46:06.717Z,101548.09
2023-04-16T12:48:38.418Z,101542.09
2023-04-16T12:51:10.278Z,101548.84
2023-04-16T12:53:43.292Z,101546.38
2023-04-16T12:56:15.599Z,101551.19
2023-04-16T12:58:50.601Z,101548.22
2023-04-16T13:01:24.310Z,101553.91
2023-04-16T13:03:56.419Z,101547.19
2023-04-16T13:06:28.202Z,101547.38
2023-04-16T13:09:01.297Z,101557.78
2023-04-16T13:11:33.381Z,101553.03
2023-04-16T13:14:05.194Z,101551.91
2023-04-16T13:16:38.709Z,101548.25
2023-04-16T13:19:10.713Z,101555.00
2023-04-16T13:21:42.770Z,101557.16
2023-04-16T13:24:15.740Z,101553.19
2023-04-16T13:26:47.577Z,101552.41
2023-04-16T13:29:19.443Z,101547.19
2023-04-16T13:31:52.472Z,101547.38
2023-04-16T13:34:25.338Z,101545.28
2023-04-16T13:36:57.209Z,101553.75
2023-04-16T13:39:30.759Z,101545.75
2023-04-16T13:42:02.705Z,101551.94
2023-04-16T13:44:34.563Z,101548.84
2023-04-16T13:47:06.555Z,101537.13
2023-04-16T13:49:38.585Z,101541.09
2023-04-16T13:52:10.641Z,101539.69
2023-04-16T13:54:43.885Z,101541.66
2023-04-16T13:57:15.884Z,101540.78
2023-04-16T13:59:49.151Z,101543.19
2023-04-16T14:02:22.049Z,101542.44
2023-04-16T14:04:53.895Z,101539.63
2023-04-16T14:07:27.200Z,101542.03
2023-04-16T14:10:00.232Z,101535.22
2023-04-16T14:12:32.598Z,101542.16
2023-04-16T14:15:09.146Z,101545.41
2023-04-16T14:17:41.196Z,101545.25
2023-04-16T14:20:11.650Z,101545.38
2023-04-16T14:22:44.190Z,101542.69
2023-04-16T14:25:17.569Z,101542.69
2023-04-16T14:27:49.507Z,101544.66
2023-04-16T14:30:21.367Z,101548.06
2023-04-16T14:32:53.704Z,101550.00
2023-04-16T14:35:26.520Z,101548.34
2023-04-16T14:37:58.870Z,101548.34
2023-04-16T14:40:31.798Z,101544.13
2023-04-16T14:43:03.719Z,101547.22
2023-04-16T14:45:38.248Z,101551.75
2023-04-16T14:48:12.004Z,101552.03
2023-04-16T14:50:44.413Z,101545.53
2023-04-16T14:53:16.764Z,101550.88
2023-04-16T14:55:49.958Z,101554.97
2023-04-16T14:58:21.822Z,101550.31
2023-04-16T15:00:53.881Z,101550.31
2023-04-16T15:03:28.630Z,101554.69
2023-04-16T15:06:00.432Z,101551.16
2023-04-16T15:08:32.418Z,101552.00
2023-04-16T15:11:05.766Z,101549.31
2023-04-16T15:13:39.386Z,101555.66
2023-04-16T15:16:11.383Z,101548.19
2023-04-16T15:18:43.092Z,101551.72
2023-04-16T15:21:15.076Z,101550.84
2023-04-16T15:23:47.133Z,101548.06
2023-04-16T15:26:20.152Z,101560.47
2023-04-16T15:28:53.409Z,101556.78
2023-04-16T15:31:25.849Z,101558.19
2023-04-16T15:34:00.737Z,101560.69
2023-04-16T15:36:32.653Z,101555.47
2023-04-16T15:39:05.296Z,101562.91
2023-04-16T15:41:47.221Z,101560.91
2023-04-16T15:44:29.210Z,101554.56
2023-04-16T15:47:01.220Z,101558.69
2023-04-16T15:49:34.489Z,101560.34
2023-04-16T15:52:06.964Z,101561.38
2023-04-16T15:54:38.908Z,101563.28
2023-04-16T15:57:12.148Z,101568.28
2023-04-16T15:59:52.853Z,101568.88
2023-04-16T16:02:35.986Z,101569.13
2023-04-16T16:05:12.751Z,101569.13
2023-04-16T16:07:46.405Z,101571.13
2023-04-16T16:10:18.873Z,101570.84
2023-04-16T16:12:52.718Z,101571.56
2023-04-16T16:15:26.103Z,101587.19
2023-04-16T16:17:58.653Z,101575.31
2023-04-16T16:20:30.945Z,101582.06
2023-04-16T16:23:02.791Z,101585.78
2023-04-16T16:25:34.746Z,101580.66
2023-04-16T16:28:08.084Z,101582.66
2023-04-16T16:30:40.700Z,101579.13
2023-04-16T16:33:14.391Z,101587.34
2023-04-16T16:35:46.042Z,101582.28
2023-04-16T16:38:18.030Z,101585.78
2023-04-16T16:40:49.878Z,101592.00
2023-04-16T16:43:23.027Z,101580.56
2023-04-16T16:45:54.628Z,101595.13
2023-04-16T16:48:28.015Z,101594.56
2023-04-16T16:50:59.982Z,101595.56
2023-04-16T16:53:31.852Z,101596.53
2023-04-16T16:56:03.693Z,101599.38
2023-04-16T16:58:36.894Z,101602.50
2023-04-16T17:01:08.809Z,101600.22
2023-04-16T17:03:40.544Z,101595.16
2023-04-16T17:06:14.336Z,101600.81
2023-04-16T17:08:47.402Z,101607.31
2023-04-16T17:11:19.859Z,101615.94
2023-04-16T17:13:52.786Z,101609.47
2023-04-16T17:16:24.788Z,101610.44
2023-04-16T17:18:57.124Z,101623.56
2023-04-16T17:21:29.013Z,101619.06
2023-04-16T17:24:00.986Z,101620.31
2023-04-16T17:26:32.913Z,101618.63
2023-04-16T17:29:06.169Z,101626.09
2023-04-16T17:31:38.586Z,101626.81
2023-04-16T17:34:10.688Z,101630.31
2023-04-16T17:36:42.459Z,101625.97
2023-04-16T17:39:14.502Z,101636.97
2023-04-16T17:41:46.400Z,101635.97
2023-04-16T17:44:19.411Z,101637.94
2023-04-16T17:46:52.686Z,101634.72
2023-04-16T17:49:24.652Z,101642.06
2023-04-16T17:51:57.375Z,101645.56
2023-04-16T17:54:29.501Z,101651.63
2023-04-16T17:57:02.070Z,101641.75
2023-04-16T17:59:35.914Z,101652.91
2023-04-16T18:02:08.341Z,101654.56
2023-04-16T18:04:40.654Z,101665.44
2023-04-16T18:07:12.709Z,101665.44
2023-04-16T18:09:44.661Z,101662.06
2023-04-16T18:12:16.522Z,101662.31
2023-04-16T18:14:49.678Z,101673.88
2023-04-16T18:17:22.784Z,101675.69
2023-04-16T18:19:54.458Z,101673.28
2023-04-16T18:22:28.206Z,101678.09
2023-04-16T18:25:01.706Z,101678.34
2023-04-16T18:27:31.744Z,101692.56
2023-04-16T18:30:05.152Z,101686.22
2023-04-16T18:32:37.644Z,101698.91
2023-04-16T18:35:10.208Z,101693.81
2023-04-16T18:37:42.102Z,101685.34
2023-04-16T18:40:15.433Z,101697.88
2023-04-16T18:42:47.474Z,101708.84
2023-04-16T18:45:21.983Z,101708.28
2023-04-16T18:47:53.835Z,101715.59
2023-04-16T18:50:25.692Z,101714.06
2023-04-16T18:52:57.665Z,101716.59
2023-04-16T18:55:30.108Z,101719.41
2023-04-16T18:58:03.382Z,101723.06
2023-04-16T19:00:36.400Z,101730.50
2023-04-16T19:03:09.781Z,101730.19
2023-04-16T19:05:41.598Z,101729.22
2023-04-16T19:08:13.420Z,101734.81
2023-04-16T19:10:47.290Z,101733.13
2023-04-16T19:13:20.239Z,101739.00
2023-04-16T19:15:58.023Z,101734.69
2023-04-16T19:18:29.798Z,101741.44
2023-04-16T19:21:04.593Z,101735.06
2023-04-16T19:23:36.513Z,101739.72
2023-04-16T19:26:08.346Z,101745.88
2023-04-16T19:28:42.414Z,101746.97
2023-04-16T19:31:15.583Z,101747.22
2023-04-16T19:33:47.282Z,101752.56
2023-04-16T19:36:19.179Z,101749.50
2023-04-16T19:38:51.249Z,101747.22
2023-04-16T19:41:23.180Z,101753.44
2023-04-16T19:43:57.139Z,101759.03
2023-04-16T19:46:30.396Z,101750.75
2023-04-16T19:49:02.302Z,101753.16
2023-04-16T19:51:34.697Z,101761.19
2023-04-16T19:54:06.797Z,101760.22
2023-04-16T19:56:38.364Z,101763.75
2023-04-16T19:59:10.468Z,101764.72
2023-04-16T20:01:43.680Z,101761.00
2023-04-16T20:04:15.893Z,101766.34
2023-04-16T20:06:47.502Z,101758.00
2023-04-16T20:09:20.171Z,101755.19
2023-04-16T20:11:51.898Z,101765.19
2023-04-16T20:14:23.721Z,101769.06
2023-04-16T20:16:57.026Z,101768.09
2023-04-16T20:19:33.633Z,101761.16
2023-04-16T20:22:06.523Z,101764.00
2023-04-16T20:24:38.585Z,101768.22
2023-04-16T20:27:10.402Z,101764.59
2023-04-16T20:29:42.361Z,101764.44
2023-04-16T20:32:15.632Z,101767.97
2023-04-16T20:34:48.783Z,101768.59
2023-04-16T20:37:20.500Z,101769.38
2023-04-16T20:39:54.047Z,101769.63
2023-04-16T20:42:26.302Z,101768.94
2023-04-16T20:45:00.686Z,101772.56
2023-04-16T20:47:34.840Z,101774.50
2023-04-16T20:50:07.256Z,101771.13
2023-04-16T20:52:38.791Z,101776.72
2023-04-16T20:55:10.969Z,101768.81
2023-04-16T20:57:42.812Z,101769.66
2023-04-16T21:00:16.830Z,101774.16
2023-04-16T21:02:49.920Z,101775.97
2023-04-16T21:05:21.639Z,101775.00
2023-04-16T21:07:55.711Z,101776.84
2023-04-16T21:10:27.750Z,101778.91
2023-04-16T21:12:59.634Z,101767.63
2023-04-16T21:15:31.781Z,101777.50
2023-04-16T21:18:05.559Z,101781.13
2023-04-16T21:20:38.062Z,101772.38
2023-04-16T21:23:10.315Z,101788.41
2023-04-16T21:25:42.148Z,101787.69
2023-04-16T21:28:13.985Z,101782.13
2023-04-16T21:30:46.251Z,101787.22
2023-04-16T21:33:19.447Z,101785.53
2023-04-16T21:35:55.940Z,101782.97
2023-04-16T21:38:27.799Z,101779.09
2023-04-16T21:40:59.634Z,101781.16
2023-04-16T21:43:32.099Z,101779.00
2023-04-16T21:46:04.278Z,101780.31
2023-04-16T21:48:37.224Z,101785.06
2023-04-16T21:51:09.988Z,101778.91
2023-04-16T21:53:41.846Z,101787.03
2023-04-16T21:56:13.717Z,101783.38
2023-04-16T21:58:45.558Z,101794.06
2023-04-16T22:01:17.577Z,101785.72
2023-04-16T22:03:51.985Z,101784.59
2023-04-16T22:06:24.237Z,101790.66
2023-04-16T22:08:58.775Z,101791.66
2023-04-16T22:11:30.579Z,101790.66
2023-04-16T22:14:08.046Z,101785.06
2023-04-16T22:16:40.147Z,101785.44
2023-04-16T22:19:14.056Z,101788.97
2023-04-16T22:21:45.737Z,101788.97
2023-04-16T22:24:17.528Z,101793.47
2023-04-16T22:26:49.417Z,101788.97
2023-04-16T22:29:21.285Z,101786.66
2023-04-16T22:31:53.279Z,101788.28
2023-04-16T22:34:26.207Z,101790.94
2023-04-16T22:36:58.055Z,101790.69
2023-04-16T22:39:30.082Z,101785.97
2023-04-16T22:42:01.904Z,101790.19
2023-04-16T22:44:33.715Z,101797.25
2023-04-16T22:47:05.631Z,101795.06
2023-04-16T22:49:38.708Z,101792.88
2023-04-16T22:52:10.318Z,101790.69
2023-04-16T22:54:42.125Z,101795.19
2023-04-16T22:57:14.320Z,101791.31
2023-04-16T22:59:46.222Z,101791.41
2023-04-16T23:02:17.923Z,101795.78
2023-04-16T23:04:51.234Z,101794.56
2023-04-16T23:07:23.101Z,101792.88
2023-04-16T23:09:54.864Z,101795.78
2023-04-16T23:12:26.697Z,101791.66
2023-04-16T23:15:00.365Z,101795.78
2023-04-16T23:17:32.858Z,101797.84
2023-04-16T23:20:07.563Z,101802.47
2023-04-16T23:22:39.581Z,101797.25
2023-04-16T23:25:13.373Z,101800.06
2023-04-16T23:27:45.225Z,101805.50
2023-04-16T23:30:18.010Z,101802.47
2023-04-16T23:32:49.978Z,101801.59
2023-04-16T23:35:23.262Z,101795.06
2023-04-16T23:37:54.873Z,101796.16
2023-04-16T23:40:26.785Z,101800.28
2023-04-16T23:42:58.601Z,101802.94
2023-04-16T23:45:30.491Z,101791.19
2023-04-16T23:48:02.507Z,101795.66
2023-04-16T23:50:35.812Z,101789.97
2023-04-16T23:53:07.633Z,101795.28
2023-04-16T23:55:40.179Z,101803.75
2023-04-16T23:58:12.011Z,101797.50
